Aeroporto :
LOGIN :

Iscrizione | Disclaimer

   EN    FR    IT 

 










Sommario :    VFR   VFR Marginale   IFR   IFR Intensivo   IFR Molto Intensivo
Visibilità : 
Base nubi : 
>= 8 km
>= 3000ft
5 / 8 km
1000 / 3000 ft
1500m / 5 km
500 / 1000 ft
800 / 1500m
200 / 500 ft
< 800m
< 200 ft
Simboli :   Temporali  Nebbia  Neve Forte  Precipitazioni Forti  Vento > 20 kt
SIGMETs :   Varie  Temporali  Ghiacco  Turbolenza  Onda orograficha  Ceneri Vulcaniche






- Altitudine del aeroporto : 605 ft
- Codice IATA : BAY


LRBM - Tautii Magheraus

ULTIMO METAR :
  • 232030Z AUTO 09008KT 9999 BKN070/// OVC100/// 10/05 Q1009

METARs OBSOLETI :
  • 232000Z AUTO 09006KT 9999 BKN065/// 09/05 Q1009
  • 231930Z AUTO 08006KT 9999 BKN060/// 09/05 Q1010
  • 231900Z AUTO 07004KT 9999 BKN055/// 10/05 Q1010
  • 231830Z AUTO 07005KT 030V100 9999 BKN060/// 10/05 Q1009
  • 231800Z AUTO 06005KT 9999 BKN055/// 10/05 Q1010
  • 231730Z AUTO 05005KT 9999 BKN055/// 10/05 Q1010
  • 231700Z AUTO 05004KT 010V090 9999 BKN055/// 09/06 Q1010
  • 231630Z AUTO VRB01KT 9999 BKN055/// 09/06 Q1010
  • 231600Z 04003KT 9999 OVC050 09/06 Q1009

TAF TAF LRBM
Valido dal 23 a 15 ore il 24 a 00 ore UTC


231400Z 2315/2400 07006KT 9999 BKN050
TEMPO 2315/2317 5000 -RA BR



MetMap, La meteo Aeronautica in un colpo d'occhio ! - Copyright ORBIFLY Dicembre 2007 - Disclaimer

ORBIFLY MET'MAP TEAM :

Programmazione e sviluppo : Alexandra Zaïnal
Concezione : Baudouin d'Aumeries
Supporto tecnico e logistico : Manuel Goepfert
Aiuto : Marc-Olivier Méhu
Aiuto per la traduzione : Arnaldo La Scala




FONTI E CREDITI :

   NOAA